Bookmark and Share
Track history (hours):
 

Kenneth S. Settoon

More information available from US FCC via Universal Licensing System and Coast Guard Vessel Documentation Center.

Last reported at 2012-Aug-27 18:26 UTC. Time now 2014-Apr-19 19:39 UTC.
Position N 29°41' W 090°11'.
Warning: this ship's position is years out of date!

Length 63 m; draft 2 m.

Type: Tug. MMSI: 367003120.

NotesDate/timePositionNaut miles runAvg speedWind from/ knotsBaromVisibWave heightAir tempDewpointWater temp
2012-Aug-27 18:26N 29°41' W 090°11'6 5.8
2012-Aug-27 17:27N 29°46' W 090°08'4 4.4
2012-Aug-27 16:33N 29°48' W 090°04'6 5.6
2012-Aug-27 15:33N 29°53' W 090°00'3 2.8
2012-Aug-27 14:27N 29°55' W 089°58'1 0.4
2012-Aug-27 12:33N 29°55' W 089°57'0 0.0
2012-Aug-27 11:30N 29°55' W 089°57'1 0.9
2012-Aug-27 10:32N 29°55' W 089°56'3 2.5
2012-Aug-27 09:27N 29°53' W 089°57'5 5.1
2012-Aug-27 08:33N 29°49' W 090°00'5 5.0
2012-Aug-27 07:33N 29°44' W 089°60'4 3.7
2012-Aug-27 06:33N 29°41' W 089°58'4 3.6
2012-Aug-27 05:33N 29°38' W 089°55'5 5.3
2012-Aug-27 04:36N 29°36' W 089°50'6 5.4
2012-Aug-27 03:33N 29°32' W 089°45'5 5.2
2012-Aug-27 02:33N 29°28' W 089°41'5 4.5
2012-Aug-27 01:31N 29°26' W 089°36'17 4.3
2012-Aug-26 21:33N 29°16' W 089°20'5 4.6
2012-Aug-26 20:33N 29°12' W 089°17'13 1.8
2012-Aug-26 13:33N 29°07' W 089°04'0 0.0
2012-Aug-26 12:32N 29°07' W 089°04'0 0.0
2012-Aug-26 11:33N 29°07' W 089°04'0 0.0
2012-Aug-26 10:34N 29°07' W 089°04'0 0.0
2012-Aug-26 09:33N 29°07' W 089°04'0 0.0
2012-Aug-26 08:33N 29°07' W 089°04'0 0.0
2012-Aug-26 07:33N 29°07' W 089°04'3 3.4
2012-Aug-26 06:33N 29°08' W 089°08'5 5.3
2012-Aug-26 05:33N 29°09' W 089°14'6 6.5
2012-Aug-26 04:37N 29°14' W 089°18'5 4.8
2012-Aug-26 03:33N 29°17' W 089°22'0 0.0
2012-Aug-26 02:33N 29°17' W 089°22'0 0.0
2012-Aug-26 01:33N 29°17' W 089°22'0 0.0
2012-Aug-26 00:33N 29°17' W 089°22'4 3.5
2012-Aug-25 23:33N 29°20' W 089°19'8 0.4
2012-Aug-25 00:24N 29°28' W 089°19'6 7.3
2012-Aug-24 23:33N 29°22' W 089°18'6 5.6
2012-Aug-24 22:33N 29°17' W 089°22'0 0.0
2012-Aug-24 21:33N 29°17' W 089°22'0 0.0
2012-Aug-24 20:33N 29°17' W 089°22'1 1.0
2012-Aug-24 19:33N 29°17' W 089°21'5 4.7
2012-Aug-24 18:33N 29°13' W 089°17'3 2.8
2012-Aug-24 17:33N 29°14' W 089°15'2 2.4
2012-Aug-24 16:33N 29°15' W 089°12'0 0.1
2012-Aug-24 15:33N 29°15' W 089°12'0 0.0
2012-Aug-24 14:33N 29°15' W 089°12'0 0.0
2012-Aug-24 13:33N 29°15' W 089°12'0 0.0
2012-Aug-24 12:31N 29°15' W 089°12'0 0.0
2012-Aug-24 09:31N 29°15' W 089°12'3 0.2
2012-Aug-23 20:33N 29°14' W 089°15'5 5.2
2012-Aug-23 19:33N 29°16' W 089°20'1 0.6
2012-Aug-23 17:33N 29°16' W 089°22'0 0.0
2012-Aug-23 16:33N 29°16' W 089°22'0 0.0
2012-Aug-23 15:33N 29°16' W 089°22'1 0.6
2012-Aug-23 14:33N 29°16' W 089°21'0 0.0
2012-Aug-23 13:34N 29°16' W 089°21'0 0.0
2012-Aug-23 12:33N 29°16' W 089°21'0 0.0
2012-Aug-23 11:34N 29°16' W 089°21'0 0.0
2012-Aug-23 10:35N 29°16' W 089°21'0 0.0
2012-Aug-23 09:33N 29°16' W 089°21'0 0.0
2012-Aug-23 08:33N 29°16' W 089°21'0 0.0
2012-Aug-23 07:33N 29°16' W 089°21'0 0.0
2012-Aug-23 06:33N 29°16' W 089°21'0 0.0
2012-Aug-23 05:32N 29°16' W 089°21'1 0.9
2012-Aug-23 04:35N 29°16' W 089°20'6 5.9
2012-Aug-23 03:33N 29°11' W 089°16'8 2.5
2012-Aug-23 00:28N 29°03' W 089°19'0 0.0
2012-Aug-22 23:33N 29°03' W 089°19'6 5.9
2012-Aug-22 22:33N 29°09' W 089°15'7 7.2
2012-Aug-22 21:33N 29°15' W 089°19'20 6.7
2012-Aug-22 18:33N 29°27' W 089°37'12 3.9
2012-Aug-22 15:33N 29°35' W 089°48'0 0.0
2012-Aug-22 13:33N 29°35' W 089°48'0 0.0
2012-Aug-22 12:33N 29°35' W 089°48'0 0.0
2012-Aug-22 11:33N 29°35' W 089°48'0 0.0
2012-Aug-22 10:35N 29°35' W 089°48'0 0.0
2012-Aug-22 09:33N 29°35' W 089°48'0 0.0
2012-Aug-22 08:33N 29°35' W 089°48'0 0.0
2012-Aug-22 07:33N 29°35' W 089°48'0 0.0
2012-Aug-22 06:33N 29°35' W 089°48'0 0.0
2012-Aug-22 05:33N 29°35' W 089°48'0 0.0
2012-Aug-22 04:36N 29°35' W 089°48'0 0.0
2012-Aug-22 03:33N 29°35' W 089°48'0 0.0
2012-Aug-22 02:33N 29°35' W 089°48'0 0.0
2012-Aug-22 01:33N 29°35' W 089°48'0 0.0
2012-Aug-22 00:33N 29°35' W 089°48'0 0.0
2012-Aug-21 23:34N 29°35' W 089°48'0 0.0
2012-Aug-21 22:33N 29°35' W 089°48'0 0.0
2012-Aug-21 21:33N 29°35' W 089°48'0 0.0
2012-Aug-21 20:33N 29°35' W 089°48'0 0.0
2012-Aug-21 19:33N 29°35' W 089°48'2 2.2
2012-Aug-21 18:33N 29°33' W 089°46'6 5.8
2012-Aug-21 17:33N 29°29' W 089°42'6 5.6
2012-Aug-21 16:33N 29°26' W 089°36'9 4.5
2012-Aug-21 14:32N 29°22' W 089°27'5 5.4
2012-Aug-21 13:33N 29°18' W 089°22'1 1.0
2012-Aug-21 12:33N 29°17' W 089°22'0 0.0
2012-Aug-21 11:33N 29°17' W 089°22'0 0.1
2012-Aug-21 10:34N 29°17' W 089°22'0 0.0
2012-Aug-21 09:33N 29°17' W 089°22'0 0.0
2012-Aug-21 08:33N 29°17' W 089°22'0 0.0
2012-Aug-21 07:33N 29°17' W 089°22'0 0.0
2012-Aug-21 06:33N 29°17' W 089°22'0 0.0
2012-Aug-21 05:33N 29°17' W 089°22'0 0.0
2012-Aug-21 04:36N 29°17' W 089°22'0 0.0
2012-Aug-21 03:33N 29°17' W 089°22'0 0.0
2012-Aug-21 02:33N 29°17' W 089°22'0 0.0
2012-Aug-21 01:33N 29°17' W 089°22'0 0.0
2012-Aug-21 00:33N 29°17' W 089°22'0 0.0
2012-Aug-20 23:34N 29°17' W 089°22'0 0.0
2012-Aug-20 22:33N 29°17' W 089°22'0 0.0
2012-Aug-20 21:33N 29°17' W 089°22'0 0.2
2012-Aug-20 20:33N 29°17' W 089°22'0 0.2
2012-Aug-20 19:33N 29°17' W 089°22'0 0.1
2012-Aug-20 18:33N 29°17' W 089°22'0 0.0
2012-Aug-20 17:33N 29°17' W 089°22'0 0.0
2012-Aug-20 16:33N 29°17' W 089°22'0 0.0
2012-Aug-20 15:33N 29°17' W 089°22'0 0.0
2012-Aug-20 14:33N 29°17' W 089°22'0 0.0
2012-Aug-20 13:33N 29°17' W 089°22'0 0.0
2012-Aug-20 12:33N 29°17' W 089°22'0 0.0
2012-Aug-20 11:33N 29°17' W 089°22'0 0.0
2012-Aug-20 10:35N 29°17' W 089°22'0 0.0
2012-Aug-20 09:33N 29°17' W 089°22'0 0.0
2012-Aug-20 08:33N 29°17' W 089°22'0 0.0
2012-Aug-20 07:33N 29°17' W 089°22'0 0.0
2012-Aug-20 06:33N 29°17' W 089°22'0 0.0
2012-Aug-20 05:33N 29°17' W 089°22'0 0.0
2012-Aug-20 04:36N 29°17' W 089°22'0 0.0
2012-Aug-20 03:33N 29°17' W 089°22'0 0.0
2012-Aug-20 02:33N 29°17' W 089°22'0 0.0
2012-Aug-20 01:33N 29°17' W 089°22'0 0.4
2012-Aug-20 00:33N 29°17' W 089°21'5 4.8
2012-Aug-19 23:33N 29°21' W 089°18'5 0.2
2012-Aug-19 00:34N 29°17' W 089°22'14 2.3
2012-Aug-18 18:34N 29°06' W 089°12'3 2.9
2012-Aug-18 17:33N 29°05' W 089°10'0 0.4
2012-Aug-18 16:33N 29°04' W 089°10'0 0.0
2012-Aug-18 15:33N 29°04' W 089°10'0 0.0
2012-Aug-18 14:33N 29°05' W 089°10'1 1.4
2012-Aug-18 13:33N 29°06' W 089°10'4 4.0
2012-Aug-18 12:33N 29°09' W 089°14'8 7.9
2012-Aug-18 11:33N 29°15' W 089°19'3 3.5
2012-Aug-18 10:36N 29°17' W 089°22'0 0.0
2012-Aug-18 09:33N 29°17' W 089°22'0 0.0
2012-Aug-18 08:33N 29°17' W 089°22'0 0.0
2012-Aug-18 07:33N 29°17' W 089°22'0 0.0
2012-Aug-18 06:33N 29°17' W 089°22'0 0.0
2012-Aug-18 05:33N 29°17' W 089°22'0 0.0
2012-Aug-18 04:36N 29°17' W 089°22'0 0.1
2012-Aug-18 03:33N 29°17' W 089°22'0 0.0
2012-Aug-18 02:33N 29°17' W 089°22'0 0.0
2012-Aug-18 01:33N 29°17' W 089°22'0 0.0
2012-Aug-18 00:33N 29°17' W 089°22'0 0.0
2012-Aug-17 23:33N 29°17' W 089°22'2 1.7
2012-Aug-17 22:33N 29°16' W 089°20'4 4.3
2012-Aug-17 21:33N 29°13' W 089°17'5 4.6
2012-Aug-17 20:33N 29°09' W 089°14'5 4.6
2012-Aug-17 19:33N 29°09' W 089°09'4 4.5
2012-Aug-17 18:33N 29°07' W 089°04'  

Dump ship's entire track history

sailing weather and tide predictions

Kenneth S. Settoon — WDC3141 — position and weather